createdAt,value
2022-08-31T00:00:25.668Z,20.29
2022-08-31T00:03:11.365Z,20.24
2022-08-31T00:05:39.548Z,20.21
2022-08-31T00:08:08.199Z,20.18
2022-08-31T00:10:37.195Z,20.17
2022-08-31T00:13:06.943Z,19.90
2022-08-31T00:15:36.753Z,20.17
2022-08-31T00:18:05.230Z,20.16
2022-08-31T00:20:34.786Z,20.16
2022-08-31T00:23:03.533Z,20.15
2022-08-31T00:25:33.669Z,19.86
2022-08-31T00:28:01.512Z,20.13
2022-08-31T00:30:30.508Z,19.99
2022-08-31T00:33:00.248Z,19.75
2022-08-31T00:35:29.284Z,20.11
2022-08-31T00:37:57.664Z,20.10
2022-08-31T00:40:26.657Z,20.08
2022-08-31T00:42:55.618Z,20.04
2022-08-31T00:45:24.431Z,20.03
2022-08-31T00:47:53.151Z,20.04
2022-08-31T00:50:25.460Z,20.05
2022-08-31T00:52:57.018Z,20.03
2022-08-31T00:55:31.079Z,18.94
2022-08-31T00:58:02.311Z,20.01
2022-08-31T01:00:30.709Z,20.00
2022-08-31T01:03:01.691Z,20.00
2022-08-31T01:05:31.535Z,19.99
2022-08-31T01:08:01.296Z,19.78
2022-08-31T01:10:33.079Z,19.87
2022-08-31T01:13:01.456Z,19.10
2022-08-31T01:15:31.334Z,19.71
2022-08-31T01:18:02.590Z,19.31
2022-08-31T01:20:38.459Z,19.63
2022-08-31T01:23:18.400Z,19.58
2022-08-31T01:25:49.952Z,19.55
2022-08-31T01:28:18.208Z,19.51
2022-08-31T01:30:59.957Z,19.47
2022-08-31T01:33:28.422Z,19.42
2022-08-31T01:35:57.481Z,19.36
2022-08-31T01:38:27.425Z,19.14
2022-08-31T01:40:58.355Z,17.98
2022-08-31T01:43:26.588Z,19.16
2022-08-31T01:45:55.290Z,19.05
2022-08-31T01:48:23.957Z,17.28
2022-08-31T01:50:52.700Z,18.99
2022-08-31T01:53:20.610Z,18.59
2022-08-31T01:55:49.995Z,18.87
2022-08-31T01:58:18.128Z,18.87
2022-08-31T02:01:10.369Z,18.95
2022-08-31T02:03:54.231Z,18.38
2022-08-31T02:06:26.101Z,18.82
2022-08-31T02:08:54.078Z,18.88
2022-08-31T02:11:23.362Z,18.32
2022-08-31T02:13:52.089Z,17.24
2022-08-31T02:16:20.267Z,18.83
2022-08-31T02:18:48.294Z,18.77
2022-08-31T02:21:16.364Z,18.68
2022-08-31T02:23:44.324Z,18.67
2022-08-31T02:26:12.815Z,18.63
2022-08-31T02:28:42.270Z,18.61
2022-08-31T02:31:11.803Z,18.61
2022-08-31T02:33:47.406Z,18.60
2022-08-31T02:36:15.357Z,18.58
2022-08-31T02:38:43.351Z,17.20
2022-08-31T02:41:11.497Z,18.03
2022-08-31T02:43:43.182Z,18.54
2022-08-31T02:46:11.764Z,18.44
2022-08-31T02:48:48.056Z,16.19
2022-08-31T02:51:19.816Z,15.63
2022-08-31T02:53:48.571Z,15.94
2022-08-31T02:56:16.557Z,17.16
2022-08-31T02:58:45.738Z,18.10
2022-08-31T03:01:13.987Z,17.08
2022-08-31T03:03:46.462Z,18.27
2022-08-31T03:06:16.820Z,18.04
2022-08-31T03:08:44.696Z,16.66
2022-08-31T03:11:13.481Z,17.95
2022-08-31T03:13:43.249Z,17.80
2022-08-31T03:16:14.475Z,17.87
2022-08-31T03:18:43.450Z,17.85
2022-08-31T03:21:11.402Z,17.61
2022-08-31T03:23:39.546Z,14.70
2022-08-31T03:26:08.209Z,17.62
2022-08-31T03:28:38.616Z,17.64
2022-08-31T03:31:27.921Z,17.08
2022-08-31T03:33:57.577Z,14.94
2022-08-31T03:36:25.822Z,15.48
2022-08-31T03:38:53.711Z,17.31
2022-08-31T03:41:24.690Z,17.63
2022-08-31T03:43:53.386Z,17.67
2022-08-31T03:46:21.488Z,16.08
2022-08-31T03:48:51.234Z,17.78
2022-08-31T03:51:20.225Z,17.59
2022-08-31T03:53:48.471Z,17.18
2022-08-31T03:56:20.130Z,17.81
2022-08-31T03:58:50.407Z,17.50
2022-08-31T04:01:42.934Z,17.68
2022-08-31T04:04:30.581Z,17.80
2022-08-31T04:07:30.588Z,17.80
2022-08-31T04:10:30.788Z,17.63
2022-08-31T04:13:17.690Z,17.37
2022-08-31T04:16:13.097Z,17.78
2022-08-31T04:18:56.251Z,17.54
2022-08-31T04:21:27.439Z,17.79
2022-08-31T04:23:56.042Z,17.59
2022-08-31T04:26:27.338Z,17.56
2022-08-31T04:28:55.819Z,16.03
2022-08-31T04:31:25.172Z,17.45
2022-08-31T04:33:53.682Z,16.41
2022-08-31T04:36:24.426Z,17.78
2022-08-31T04:38:58.092Z,16.91
2022-08-31T04:41:28.400Z,17.09
2022-08-31T04:43:58.695Z,17.19
2022-08-31T04:46:28.436Z,17.86
2022-08-31T04:48:56.753Z,15.34
2022-08-31T04:51:26.743Z,17.88
2022-08-31T04:53:56.754Z,17.74
2022-08-31T04:56:27.374Z,17.81
2022-08-31T04:58:59.536Z,15.02
2022-08-31T05:01:36.138Z,14.98
2022-08-31T05:04:39.407Z,17.82
2022-08-31T05:07:07.593Z,17.82
2022-08-31T05:09:38.490Z,16.40
2022-08-31T05:12:06.701Z,17.61
2022-08-31T05:14:35.885Z,16.77
2022-08-31T05:17:13.763Z,17.54
2022-08-31T05:19:43.705Z,16.59
2022-08-31T05:22:15.457Z,17.78
2022-08-31T05:24:48.055Z,15.30
2022-08-31T05:27:16.160Z,16.51
2022-08-31T05:29:45.366Z,15.89
2022-08-31T05:32:41.373Z,15.56
2022-08-31T05:35:11.504Z,17.93
2022-08-31T05:37:41.357Z,17.73
2022-08-31T05:40:12.914Z,17.95
2022-08-31T05:42:40.725Z,17.97
2022-08-31T05:45:09.556Z,17.99
2022-08-31T05:47:38.298Z,17.70
2022-08-31T05:50:08.256Z,18.02
2022-08-31T05:52:37.917Z,18.05
2022-08-31T05:55:06.467Z,18.08
2022-08-31T05:57:36.988Z,18.13
2022-08-31T06:00:06.156Z,17.11
2022-08-31T06:02:41.842Z,18.18
2022-08-31T06:05:12.521Z,18.19
2022-08-31T06:07:40.519Z,17.81
2022-08-31T06:10:11.900Z,18.25
2022-08-31T06:12:44.157Z,18.28
2022-08-31T06:15:13.138Z,18.09
2022-08-31T06:17:40.942Z,18.34
2022-08-31T06:20:14.268Z,18.37
2022-08-31T06:22:46.752Z,18.41
2022-08-31T06:25:24.426Z,18.27
2022-08-31T06:27:55.084Z,18.51
2022-08-31T06:30:27.136Z,18.55
2022-08-31T06:32:58.513Z,18.60
2022-08-31T06:35:30.390Z,18.64
2022-08-31T06:38:26.923Z,17.96
2022-08-31T06:41:31.193Z,18.76
2022-08-31T06:44:24.901Z,18.73
2022-08-31T06:47:07.718Z,18.37
2022-08-31T06:49:39.615Z,18.89
2022-08-31T06:52:08.178Z,18.95
2022-08-31T06:54:38.168Z,19.00
2022-08-31T06:57:24.643Z,18.96
2022-08-31T07:00:13.214Z,19.12
2022-08-31T07:03:22.708Z,19.01
2022-08-31T07:05:56.184Z,18.80
2022-08-31T07:08:24.205Z,19.26
2022-08-31T07:10:52.773Z,19.41
2022-08-31T07:13:20.771Z,19.60
2022-08-31T07:15:50.232Z,19.83
2022-08-31T07:18:18.119Z,20.09
2022-08-31T07:20:46.984Z,19.96
2022-08-31T07:23:14.911Z,20.71
2022-08-31T07:25:52.564Z,21.21
2022-08-31T07:28:20.406Z,21.95
2022-08-31T07:30:50.071Z,22.92
2022-08-31T07:33:20.636Z,23.91
2022-08-31T07:35:54.258Z,25.21
2022-08-31T07:39:00.858Z,27.19
2022-08-31T07:41:49.828Z,29.41
2022-08-31T07:44:19.487Z,31.14
2022-08-31T07:46:48.150Z,32.56
2022-08-31T07:49:19.452Z,33.30
2022-08-31T07:51:59.983Z,33.27
2022-08-31T07:54:48.571Z,33.24
2022-08-31T07:57:42.476Z,34.84
2022-08-31T08:00:14.639Z,36.58
2022-08-31T08:02:46.343Z,37.19
2022-08-31T08:05:27.017Z,38.27
2022-08-31T08:08:15.820Z,39.76
2022-08-31T08:11:10.343Z,40.71
2022-08-31T08:13:54.291Z,41.26
2022-08-31T08:16:30.347Z,42.54
2022-08-31T08:19:19.059Z,44.32
2022-08-31T08:21:50.031Z,45.48
2022-08-31T08:24:24.212Z,45.05
2022-08-31T08:27:16.912Z,43.47
2022-08-31T08:29:52.788Z,41.77
2022-08-31T08:32:25.756Z,40.65
2022-08-31T08:34:53.943Z,41.64
2022-08-31T08:37:41.130Z,41.84
2022-08-31T08:40:16.967Z,41.24
2022-08-31T08:42:45.115Z,40.51
2022-08-31T08:45:13.419Z,41.95
2022-08-31T08:47:43.158Z,43.90
2022-08-31T08:50:11.213Z,45.15
2022-08-31T08:52:44.848Z,46.11
2022-08-31T08:55:16.747Z,46.59
2022-08-31T08:57:47.666Z,46.87
2022-08-31T09:00:19.210Z,47.48
2022-08-31T09:02:58.307Z,47.47
2022-08-31T09:06:09.620Z,46.93
2022-08-31T09:09:08.087Z,46.88
2022-08-31T09:11:50.316Z,46.22
2022-08-31T09:14:49.772Z,43.59
2022-08-31T09:17:35.724Z,40.20
2022-08-31T09:20:05.726Z,36.88
2022-08-31T09:22:47.242Z,35.11
2022-08-31T09:25:53.232Z,33.62
2022-08-31T09:28:48.425Z,32.35
2022-08-31T09:31:37.580Z,31.15
2022-08-31T09:34:13.957Z,30.39
2022-08-31T09:36:42.355Z,29.83
2022-08-31T09:39:19.379Z,29.41
2022-08-31T09:41:50.180Z,29.12
2022-08-31T09:44:31.397Z,29.23
2022-08-31T09:47:02.786Z,29.42
2022-08-31T09:49:32.320Z,29.49
2022-08-31T09:52:51.003Z,29.62
2022-08-31T09:55:25.305Z,29.45
2022-08-31T09:57:58.940Z,29.93
2022-08-31T10:00:41.077Z,29.79
2022-08-31T10:03:20.058Z,29.18
2022-08-31T10:05:50.476Z,29.15
2022-08-31T10:08:33.739Z,28.93
2022-08-31T10:11:11.250Z,28.77
2022-08-31T10:13:46.592Z,28.86
2022-08-31T10:16:25.462Z,28.86
2022-08-31T10:19:01.086Z,28.83
2022-08-31T10:21:40.503Z,28.01
2022-08-31T10:24:20.648Z,28.55
2022-08-31T10:26:53.379Z,28.28
2022-08-31T10:29:32.622Z,27.96
2022-08-31T10:32:09.102Z,27.77
2022-08-31T10:34:58.807Z,27.54
2022-08-31T10:37:36.602Z,27.17
2022-08-31T10:40:08.947Z,26.52
2022-08-31T10:42:40.238Z,27.29
2022-08-31T10:45:18.568Z,27.34
2022-08-31T10:47:49.982Z,27.44
2022-08-31T10:50:28.528Z,27.65
2022-08-31T10:53:11.325Z,27.49
2022-08-31T10:55:48.961Z,26.90
2022-08-31T10:58:27.561Z,28.74
2022-08-31T11:01:03.164Z,31.45
2022-08-31T11:03:56.678Z,32.73
2022-08-31T11:06:32.945Z,34.26
2022-08-31T11:09:07.016Z,34.45
2022-08-31T11:11:43.679Z,33.40
2022-08-31T11:14:48.320Z,32.61
2022-08-31T11:17:34.537Z,31.01
2022-08-31T11:20:39.745Z,30.68
2022-08-31T11:23:47.821Z,29.78
2022-08-31T11:26:45.046Z,28.83
2022-08-31T11:29:25.567Z,28.08
2022-08-31T11:31:55.061Z,27.77
2022-08-31T11:34:29.101Z,27.15
2022-08-31T11:37:00.953Z,27.05
2022-08-31T11:39:48.411Z,26.88
2022-08-31T11:42:49.657Z,26.84
2022-08-31T11:45:29.943Z,26.51
2022-08-31T11:47:59.336Z,26.23
2022-08-31T11:50:56.844Z,26.02
2022-08-31T11:53:34.968Z,25.82
2022-08-31T11:56:03.992Z,25.93
2022-08-31T11:58:34.624Z,26.24
2022-08-31T12:01:28.208Z,26.57
2022-08-31T12:04:03.256Z,26.04
2022-08-31T12:07:07.742Z,26.74
2022-08-31T12:10:24.072Z,26.97
2022-08-31T12:13:31.131Z,26.96
2022-08-31T12:16:20.897Z,28.05
2022-08-31T12:19:13.387Z,28.16
2022-08-31T12:22:06.847Z,28.99
2022-08-31T12:24:49.502Z,29.59
2022-08-31T12:27:31.998Z,29.66
2022-08-31T12:30:19.705Z,29.66
2022-08-31T12:32:57.850Z,29.77
2022-08-31T12:35:28.188Z,29.72
2022-08-31T12:38:00.981Z,29.87
2022-08-31T12:40:33.055Z,29.79
2022-08-31T12:43:09.449Z,29.43
2022-08-31T12:46:04.613Z,29.15
2022-08-31T12:48:47.764Z,28.95
2022-08-31T12:51:27.258Z,28.66
2022-08-31T12:54:17.397Z,28.42
2022-08-31T12:56:52.274Z,28.38
2022-08-31T12:59:59.425Z,28.14
2022-08-31T13:02:23.912Z,28.18
2022-08-31T13:04:52.250Z,28.48
2022-08-31T13:07:25.935Z,28.69
2022-08-31T13:10:04.470Z,28.65
2022-08-31T13:12:32.251Z,29.03
2022-08-31T13:14:59.987Z,29.25
2022-08-31T13:17:34.920Z,29.33
2022-08-31T13:20:03.664Z,29.20
2022-08-31T13:22:33.416Z,28.79
2022-08-31T13:25:16.352Z,28.27
2022-08-31T13:27:49.271Z,27.87
2022-08-31T13:30:21.162Z,27.00
2022-08-31T13:32:52.400Z,27.37
2022-08-31T13:35:22.861Z,27.09
2022-08-31T13:38:03.767Z,26.78
2022-08-31T13:40:35.398Z,26.69
2022-08-31T13:43:04.272Z,26.43
2022-08-31T13:45:34.846Z,26.37
2022-08-31T13:48:08.648Z,26.02
2022-08-31T13:50:52.324Z,26.16
2022-08-31T13:53:42.237Z,26.25
2022-08-31T13:56:53.195Z,26.30
2022-08-31T13:59:32.349Z,26.40
2022-08-31T14:02:02.552Z,26.45
2022-08-31T14:04:43.822Z,26.54
2022-08-31T14:07:21.250Z,26.68
2022-08-31T14:09:52.116Z,26.71
2022-08-31T14:12:36.163Z,26.69
2022-08-31T14:15:21.342Z,26.34
2022-08-31T14:21:04.048Z,26.22
2022-08-31T14:23:35.360Z,25.13
2022-08-31T14:26:06.405Z,25.66
2022-08-31T14:28:42.481Z,25.38
2022-08-31T14:31:22.827Z,25.56
2022-08-31T14:34:06.989Z,24.72
2022-08-31T14:36:52.495Z,25.66
2022-08-31T14:39:27.895Z,25.78
2022-08-31T14:41:58.282Z,25.83
2022-08-31T14:44:29.553Z,25.92
2022-08-31T14:46:57.828Z,25.82
2022-08-31T14:49:25.823Z,25.97
2022-08-31T14:51:59.839Z,25.86
2022-08-31T14:54:34.632Z,25.82
2022-08-31T14:57:05.698Z,25.12
2022-08-31T14:59:35.683Z,25.76
2022-08-31T15:02:03.694Z,24.67
2022-08-31T15:04:33.639Z,25.47
2022-08-31T15:07:06.858Z,25.90
2022-08-31T15:09:42.300Z,25.77
2022-08-31T15:12:14.760Z,25.85
2022-08-31T15:14:45.074Z,25.64
2022-08-31T15:17:19.018Z,25.70
2022-08-31T15:19:50.333Z,23.69
2022-08-31T15:22:19.884Z,25.53
2022-08-31T15:24:49.614Z,25.30
2022-08-31T15:27:18.535Z,25.32
2022-08-31T15:29:49.421Z,25.26
2022-08-31T15:32:18.691Z,23.11
2022-08-31T15:34:53.254Z,24.39
2022-08-31T15:37:22.609Z,24.79
2022-08-31T15:39:57.548Z,24.71
2022-08-31T15:42:29.603Z,23.07
2022-08-31T15:45:01.125Z,23.71
2022-08-31T15:47:49.230Z,24.47
2022-08-31T15:50:23.337Z,24.44
2022-08-31T15:52:56.314Z,23.29
2022-08-31T15:55:29.908Z,22.86
2022-08-31T15:57:59.523Z,22.93
2022-08-31T16:00:40.836Z,24.19
2022-08-31T16:03:09.007Z,23.36
2022-08-31T16:05:39.645Z,24.24
2022-08-31T16:08:11.430Z,23.24
2022-08-31T16:10:44.195Z,22.76
2022-08-31T16:13:12.632Z,24.31
2022-08-31T16:16:02.125Z,22.01
2022-08-31T16:18:31.254Z,24.10
2022-08-31T16:21:06.241Z,23.91
2022-08-31T16:23:35.806Z,23.89
2022-08-31T16:26:06.389Z,23.83
2022-08-31T16:28:36.185Z,23.77
2022-08-31T16:31:05.627Z,23.68
2022-08-31T16:33:33.565Z,23.60
2022-08-31T16:36:01.515Z,23.54
2022-08-31T16:38:30.971Z,22.50
2022-08-31T16:41:03.424Z,23.40
2022-08-31T16:43:31.650Z,23.26
2022-08-31T16:46:00.578Z,23.31
2022-08-31T16:48:46.189Z,23.05
2022-08-31T16:51:16.233Z,23.06
2022-08-31T16:53:47.578Z,23.10
2022-08-31T16:56:17.325Z,23.17
2022-08-31T16:58:52.382Z,22.94
2022-08-31T17:01:25.514Z,22.98
2022-08-31T17:03:55.931Z,22.90
2022-08-31T17:06:24.879Z,22.85
2022-08-31T17:08:57.032Z,22.60
2022-08-31T17:11:32.188Z,22.23
2022-08-31T17:14:01.921Z,22.69
2022-08-31T17:16:34.693Z,22.48
2022-08-31T17:19:07.609Z,22.57
2022-08-31T17:21:48.055Z,22.51
2022-08-31T17:24:18.437Z,22.45
2022-08-31T17:26:48.254Z,22.21
2022-08-31T17:29:16.200Z,21.93
2022-08-31T17:31:46.226Z,22.38
2022-08-31T17:34:17.229Z,21.74
2022-08-31T17:36:47.779Z,22.31
2022-08-31T17:39:17.680Z,22.20
2022-08-31T17:41:48.576Z,20.54
2022-08-31T17:44:29.467Z,22.22
2022-08-31T17:47:09.874Z,21.58
2022-08-31T17:49:46.612Z,20.33
2022-08-31T17:52:31.365Z,20.34
2022-08-31T17:55:07.553Z,20.38
2022-08-31T17:57:47.148Z,20.27
2022-08-31T18:00:19.085Z,21.66
2022-08-31T18:02:49.179Z,21.77
2022-08-31T18:05:17.669Z,21.72
2022-08-31T18:07:49.956Z,19.86
2022-08-31T18:10:19.186Z,21.62
2022-08-31T18:12:48.736Z,20.84
2022-08-31T18:15:19.059Z,20.17
2022-08-31T18:17:48.154Z,21.13
2022-08-31T18:20:19.193Z,20.84
2022-08-31T18:22:52.018Z,21.45
2022-08-31T18:25:20.955Z,21.42
2022-08-31T18:28:00.091Z,20.86
2022-08-31T18:30:41.297Z,21.32
2022-08-31T18:33:14.799Z,21.29
2022-08-31T18:36:02.818Z,20.53
2022-08-31T18:38:30.960Z,20.31
2022-08-31T18:41:13.177Z,18.77
2022-08-31T18:44:00.165Z,21.15
2022-08-31T18:46:28.803Z,21.12
2022-08-31T18:49:11.856Z,21.11
2022-08-31T18:51:46.743Z,20.95
2022-08-31T18:54:17.712Z,21.06
2022-08-31T18:56:45.887Z,20.77
2022-08-31T18:59:16.514Z,19.32
2022-08-31T19:01:48.084Z,18.95
2022-08-31T19:04:47.028Z,20.52
2022-08-31T19:07:19.954Z,20.86
2022-08-31T19:09:51.220Z,19.39
2022-08-31T19:12:20.183Z,20.45
2022-08-31T19:14:55.524Z,20.85
2022-08-31T19:17:26.982Z,20.10
2022-08-31T19:19:55.202Z,20.74
2022-08-31T19:22:23.698Z,20.72
2022-08-31T19:24:54.846Z,20.51
2022-08-31T19:27:23.788Z,20.65
2022-08-31T19:29:56.406Z,20.40
2022-08-31T19:32:24.762Z,20.03
2022-08-31T19:34:53.494Z,20.53
2022-08-31T19:37:21.527Z,20.49
2022-08-31T19:39:53.182Z,18.68
2022-08-31T19:42:40.136Z,20.21
2022-08-31T19:45:25.456Z,19.18
2022-08-31T19:48:26.703Z,17.24
2022-08-31T19:51:02.940Z,16.43
2022-08-31T19:53:33.159Z,20.17
2022-08-31T19:56:11.207Z,19.55
2022-08-31T19:58:49.477Z,20.05
2022-08-31T20:01:34.159Z,17.14
2022-08-31T20:04:04.241Z,18.66
2022-08-31T20:06:32.661Z,19.68
2022-08-31T20:09:00.940Z,19.26
2022-08-31T20:11:35.381Z,19.73
2022-08-31T20:14:05.097Z,19.58
2022-08-31T20:16:41.823Z,19.64
2022-08-31T20:19:14.102Z,19.61
2022-08-31T20:21:42.744Z,19.58
2022-08-31T20:24:14.773Z,19.60
2022-08-31T20:26:51.457Z,18.21
2022-08-31T20:29:23.728Z,17.14
2022-08-31T20:31:56.196Z,19.61
2022-08-31T20:34:29.079Z,17.81
2022-08-31T20:37:01.187Z,18.87
2022-08-31T20:39:31.920Z,18.77
2022-08-31T20:42:03.442Z,19.35
2022-08-31T20:44:37.293Z,19.48
2022-08-31T20:47:25.876Z,19.25
2022-08-31T20:49:56.123Z,19.16
2022-08-31T20:52:28.036Z,19.43
2022-08-31T20:55:01.989Z,17.68
2022-08-31T20:57:33.129Z,19.32
2022-08-31T21:00:02.928Z,18.24
2022-08-31T21:02:34.057Z,17.99
2022-08-31T21:05:20.727Z,17.25
2022-08-31T21:07:52.297Z,19.19
2022-08-31T21:10:33.719Z,18.82
2022-08-31T21:13:10.994Z,19.05
2022-08-31T21:15:44.810Z,18.95
2022-08-31T21:18:17.278Z,18.85
2022-08-31T21:20:45.653Z,18.71
2022-08-31T21:23:13.631Z,16.93
2022-08-31T21:25:45.196Z,17.26
2022-08-31T21:28:15.606Z,18.30
2022-08-31T21:30:45.150Z,17.06
2022-08-31T21:33:13.052Z,16.51
2022-08-31T21:35:42.637Z,18.17
2022-08-31T21:38:12.911Z,18.05
2022-08-31T21:40:48.084Z,17.49
2022-08-31T21:43:16.112Z,17.82
2022-08-31T21:45:44.324Z,16.29
2022-08-31T21:48:12.139Z,17.60
2022-08-31T21:50:40.028Z,16.98
2022-08-31T21:53:09.335Z,16.43
2022-08-31T21:55:38.802Z,15.44
2022-08-31T21:58:06.697Z,15.33
2022-08-31T22:00:35.032Z,16.91
2022-08-31T22:03:03.352Z,15.32
2022-08-31T22:05:32.920Z,16.42
2022-08-31T22:08:01.593Z,15.65
2022-08-31T22:10:32.536Z,14.86
2022-08-31T22:13:00.796Z,14.84
2022-08-31T22:15:29.085Z,15.73
2022-08-31T22:18:15.490Z,14.29
2022-08-31T22:20:45.504Z,16.44
2022-08-31T22:23:14.372Z,16.50
2022-08-31T22:25:43.644Z,13.72
2022-08-31T22:28:12.645Z,14.62
2022-08-31T22:30:40.543Z,16.28
2022-08-31T22:33:08.709Z,16.22
2022-08-31T22:35:39.996Z,16.15
2022-08-31T22:38:09.040Z,16.08
2022-08-31T22:40:39.496Z,14.58
2022-08-31T22:43:09.842Z,14.29
2022-08-31T22:45:48.141Z,15.92
2022-08-31T22:48:16.466Z,14.27
2022-08-31T22:50:44.383Z,14.26
2022-08-31T22:53:12.227Z,15.37
2022-08-31T22:55:41.113Z,14.85
2022-08-31T22:58:10.510Z,14.77
2022-08-31T23:00:38.418Z,15.16
2022-08-31T23:03:06.747Z,14.26
2022-08-31T23:05:37.958Z,15.47
2022-08-31T23:08:07.615Z,14.09
2022-08-31T23:10:35.920Z,12.87
2022-08-31T23:13:03.823Z,12.03
2022-08-31T23:15:33.495Z,15.24
2022-08-31T23:18:02.060Z,15.20
2022-08-31T23:20:31.055Z,14.17
2022-08-31T23:23:01.003Z,14.22
2022-08-31T23:25:29.118Z,13.04
2022-08-31T23:27:56.964Z,14.26
2022-08-31T23:30:25.643Z,14.00
2022-08-31T23:32:55.036Z,12.04
2022-08-31T23:35:24.500Z,13.06
2022-08-31T23:37:54.278Z,12.09
2022-08-31T23:40:22.288Z,14.54
2022-08-31T23:42:50.510Z,14.03
2022-08-31T23:45:18.522Z,14.94
2022-08-31T23:47:46.699Z,12.31
2022-08-31T23:50:16.531Z,14.76
2022-08-31T23:52:45.821Z,12.73
2022-08-31T23:55:13.774Z,14.87
2022-08-31T23:57:41.910Z,13.93
